Time;durP1;ratioP1;P1;durP2;ratioP2;P2;SDS_P1;SDS_P2;PMS_P1;PMS_P2;Temp;Humidity;BMP_temperature;BMP_pressure;BME280_temperature;BME280_humidity;BME280_pressure;Samples;Min_cycle;Max_cycle;Signal;HPM_P1;HPM_P2
2023/09/24 00:01:48;;;;;;;1.50;1.40;;;8.10;99.90;;;;;;467193;254;28108;-69
2023/09/24 00:03:50;;;;;;;1.70;1.60;;;8.20;99.90;;;;;;467195;253;28068;-71
2023/09/24 00:05:51;;;;;;;2.00;1.80;;;8.10;99.90;;;;;;467114;253;27957;-69
2023/09/24 00:07:52;;;;;;;1.30;1.20;;;8.10;99.90;;;;;;467084;254;27887;-70
2023/09/24 00:09:53;;;;;;;2.83;1.40;;;8.10;99.90;;;;;;467169;253;27806;-70
2023/09/24 00:11:56;;;;;;;3.70;1.63;;;8.00;99.90;;;;;;467134;253;27936;-70
2023/09/24 00:13:56;;;;;;;1.87;1.70;;;8.10;99.90;;;;;;467091;253;27995;-70
2023/09/24 00:15:57;;;;;;;2.67;1.53;;;8.00;99.90;;;;;;467114;253;27937;-69
2023/09/24 00:17:58;;;;;;;2.10;1.90;;;8.00;99.90;;;;;;467155;253;28618;-70
2023/09/24 00:20:00;;;;;;;2.60;1.60;;;8.00;99.90;;;;;;467153;253;28664;-71
2023/09/24 00:22:03;;;;;;;3.20;1.80;;;8.00;99.90;;;;;;467207;254;28276;-70
2023/09/24 00:24:03;;;;;;;2.80;1.93;;;8.00;99.90;;;;;;467059;253;28560;-70
2023/09/24 00:26:03;;;;;;;1.77;1.37;;;8.00;99.90;;;;;;467151;254;28367;-75
2023/09/24 00:28:05;;;;;;;1.73;1.63;;;7.90;99.90;;;;;;467165;253;28470;-73
2023/09/24 00:30:06;;;;;;;2.80;1.90;;;8.00;99.90;;;;;;467151;253;27972;-73
2023/09/24 00:32:07;;;;;;;2.10;1.30;;;7.90;99.90;;;;;;467151;253;27579;-72
2023/09/24 00:34:08;;;;;;;2.47;1.70;;;7.90;99.90;;;;;;467118;253;28110;-72
2023/09/24 00:36:10;;;;;;;1.90;1.60;;;7.90;99.90;;;;;;467181;249;28188;-73
2023/09/24 00:38:11;;;;;;;3.70;1.90;;;7.80;99.90;;;;;;467148;253;28089;-72
2023/09/24 00:40:12;;;;;;;5.53;3.17;;;7.80;99.90;;;;;;467123;253;28091;-72
2023/09/24 00:42:13;;;;;;;3.23;2.70;;;7.70;99.90;;;;;;467135;253;27563;-71
2023/09/24 00:44:15;;;;;;;3.67;2.40;;;7.70;99.90;;;;;;467158;253;27638;-72
2023/09/24 00:46:16;;;;;;;2.80;2.03;;;7.70;99.90;;;;;;467149;253;27634;-72
2023/09/24 00:48:17;;;;;;;2.10;1.90;;;7.70;99.90;;;;;;467133;253;27847;-71
2023/09/24 00:50:18;;;;;;;2.10;1.87;;;7.70;99.90;;;;;;467151;253;28103;-72
2023/09/24 00:52:20;;;;;;;2.90;2.07;;;7.70;99.90;;;;;;467162;253;27990;-71
2023/09/24 00:54:21;;;;;;;3.03;2.17;;;7.60;99.90;;;;;;467144;254;28119;-72
2023/09/24 00:56:22;;;;;;;1.90;1.70;;;7.60;99.90;;;;;;467141;250;28011;-72
2023/09/24 00:58:27;;;;;;;1.50;1.40;;;7.60;99.90;;;;;;467131;253;28471;-71
2023/09/24 01:00:30;;;;;;;1.60;1.50;;;7.70;99.90;;;;;;467074;253;27882;-72
2023/09/24 01:02:32;;;;;;;1.87;1.50;;;7.70;99.90;;;;;;466987;254;27968;-72
2023/09/24 01:04:30;;;;;;;2.33;1.90;;;7.70;99.90;;;;;;466974;249;28662;-72
2023/09/24 01:06:31;;;;;;;2.40;1.80;;;7.60;99.90;;;;;;467132;253;28338;-72
2023/09/24 01:08:33;;;;;;;1.97;1.50;;;7.60;99.90;;;;;;467130;253;28457;-72
2023/09/24 01:10:34;;;;;;;1.80;1.70;;;7.50;99.90;;;;;;467160;253;28021;-72
2023/09/24 01:12:39;;;;;;;1.77;1.67;;;7.50;99.90;;;;;;467157;254;28514;-72
2023/09/24 01:14:36;;;;;;;2.33;1.97;;;7.50;99.90;;;;;;466937;254;27850;-73
2023/09/24 01:16:38;;;;;;;1.80;1.63;;;7.40;99.90;;;;;;467141;253;27955;-72
2023/09/24 01:18:44;;;;;;;3.67;1.53;;;7.40;99.90;;;;;;467127;253;27988;-72
2023/09/24 01:20:40;;;;;;;2.70;1.53;;;7.30;99.90;;;;;;466658;254;28054;-72
2023/09/24 01:22:41;;;;;;;1.50;1.40;;;7.40;99.90;;;;;;467162;253;27930;-72
2023/09/24 01:24:42;;;;;;;1.60;1.50;;;7.40;99.90;;;;;;467126;253;28143;-72
2023/09/24 01:26:44;;;;;;;2.50;2.13;;;7.40;99.90;;;;;;467131;253;28041;-71
2023/09/24 01:28:47;;;;;;;1.77;1.67;;;7.40;99.90;;;;;;467131;254;27727;-73
2023/09/24 01:30:46;;;;;;;2.10;1.80;;;7.40;99.90;;;;;;467088;254;28311;-71
2023/09/24 01:32:50;;;;;;;2.03;1.83;;;7.50;99.90;;;;;;467133;254;28014;-71
2023/09/24 01:34:50;;;;;;;2.40;1.93;;;7.40;99.90;;;;;;467062;253;28051;-72
2023/09/24 01:36:50;;;;;;;1.80;1.70;;;7.40;99.90;;;;;;467051;254;28625;-71
2023/09/24 01:38:53;;;;;;;1.90;1.80;;;7.40;99.90;;;;;;467027;253;27864;-71
2023/09/24 01:40:54;;;;;;;2.10;1.90;;;7.40;99.90;;;;;;467095;253;28027;-72
2023/09/24 01:42:55;;;;;;;3.20;1.70;;;7.30;99.90;;;;;;467080;254;28350;-71
2023/09/24 01:44:55;;;;;;;2.43;2.23;;;7.30;99.90;;;;;;467059;254;28496;-72
2023/09/24 01:46:56;;;;;;;1.93;1.83;;;7.40;99.90;;;;;;467143;253;28816;-72
2023/09/24 01:48:59;;;;;;;2.53;1.80;;;7.30;99.90;;;;;;467150;253;28608;-71
2023/09/24 01:50:59;;;;;;;3.77;1.80;;;7.30;99.90;;;;;;467136;253;29335;-72
2023/09/24 01:53:00;;;;;;;1.63;1.53;;;7.30;99.90;;;;;;467120;253;27871;-71
2023/09/24 01:55:01;;;;;;;3.43;1.97;;;7.20;99.90;;;;;;467162;253;27969;-73
2023/09/24 01:57:03;;;;;;;2.10;1.77;;;7.20;99.90;;;;;;467114;253;27956;-71
2023/09/24 01:59:06;;;;;;;1.97;1.60;;;7.30;99.90;;;;;;467143;253;27941;-71
2023/09/24 02:01:06;;;;;;;2.87;1.90;;;7.20;99.90;;;;;;467031;253;27804;-72
2023/09/24 02:03:10;;;;;;;2.40;1.67;;;7.20;99.90;;;;;;467054;254;28015;-72
2023/09/24 02:05:10;;;;;;;2.10;1.90;;;7.10;99.90;;;;;;466971;254;27959;-73
2023/09/24 02:07:11;;;;;;;2.60;1.60;;;7.10;99.90;;;;;;467043;254;27926;-71
2023/09/24 02:09:14;;;;;;;2.83;1.53;;;7.10;99.90;;;;;;466991;254;27767;-72
2023/09/24 02:11:11;;;;;;;1.90;1.80;;;7.00;99.90;;;;;;466938;254;28534;-73
2023/09/24 02:13:12;;;;;;;2.23;1.80;;;7.10;99.90;;;;;;467142;253;28094;-73
2023/09/24 02:15:25;;;;;;;2.40;2.10;;;7.00;99.90;;;;;;467142;253;27976;-72
2023/09/24 02:17:15;;;;;;;2.20;1.87;;;7.00;99.90;;;;;;465963;254;27598;-74
2023/09/24 02:19:17;;;;;;;1.80;1.50;;;7.00;99.90;;;;;;467126;254;28159;-71
2023/09/24 02:21:18;;;;;;;1.90;1.80;;;7.00;99.90;;;;;;467120;253;28099;-73
2023/09/24 02:23:19;;;;;;;1.70;1.60;;;7.00;99.90;;;;;;467151;254;28400;-72
2023/09/24 02:25:20;;;;;;;3.27;1.70;;;7.00;99.90;;;;;;467156;253;28253;-73
2023/09/24 02:27:21;;;;;;;1.90;1.77;;;7.10;99.90;;;;;;467138;253;29345;-73
2023/09/24 02:29:23;;;;;;;2.40;1.80;;;7.10;99.90;;;;;;467163;253;28201;-72
2023/09/24 02:31:24;;;;;;;3.90;2.13;;;7.00;99.90;;;;;;467137;253;28062;-72
2023/09/24 02:33:25;;;;;;;2.30;1.80;;;7.00;99.90;;;;;;467149;253;28019;-72
2023/09/24 02:35:26;;;;;;;2.50;2.00;;;7.00;99.90;;;;;;467144;253;27797;-71
2023/09/24 02:37:29;;;;;;;1.83;1.73;;;6.90;99.90;;;;;;467125;253;28074;-73
2023/09/24 02:39:29;;;;;;;2.97;1.90;;;6.90;99.90;;;;;;467009;254;28963;-71
2023/09/24 02:41:31;;;;;;;1.77;1.67;;;6.90;99.90;;;;;;467139;253;28109;-71
2023/09/24 02:43:32;;;;;;;1.97;1.80;;;6.90;99.90;;;;;;467135;254;28086;-72
2023/09/24 02:45:33;;;;;;;4.20;1.97;;;6.90;99.90;;;;;;467102;250;28513;-72
2023/09/24 02:47:34;;;;;;;1.80;1.70;;;6.90;99.90;;;;;;467057;253;28864;-70
2023/09/24 02:49:35;;;;;;;1.93;1.60;;;6.80;99.90;;;;;;467151;253;27441;-70
2023/09/24 02:51:36;;;;;;;2.00;1.80;;;6.80;99.90;;;;;;467151;253;27980;-71
2023/09/24 02:53:38;;;;;;;2.10;1.83;;;6.80;99.90;;;;;;467156;253;27996;-72
2023/09/24 02:55:39;;;;;;;2.77;2.03;;;6.80;99.90;;;;;;467158;249;27925;-70
2023/09/24 02:57:40;;;;;;;3.30;1.90;;;6.80;99.90;;;;;;467146;254;27979;-71
2023/09/24 02:59:41;;;;;;;2.60;2.40;;;6.70;99.90;;;;;;467180;253;28479;-69
2023/09/24 03:01:48;;;;;;;5.37;1.97;;;6.70;99.90;;;;;;467150;253;28167;-70
2023/09/24 03:03:44;;;;;;;2.10;1.70;;;6.70;99.90;;;;;;466785;254;28564;-71
2023/09/24 03:05:45;;;;;;;2.00;1.90;;;6.70;99.90;;;;;;467120;253;28253;-71
2023/09/24 03:07:46;;;;;;;2.17;1.97;;;6.70;99.90;;;;;;467102;253;28438;-72
2023/09/24 03:09:49;;;;;;;2.42;1.87;;;6.70;99.90;;;;;;467111;253;28160;-71
2023/09/24 03:11:49;;;;;;;1.90;1.80;;;6.70;99.90;;;;;;467109;250;27462;-71
2023/09/24 03:13:50;;;;;;;2.30;1.90;;;6.70;99.90;;;;;;467126;254;27962;-71
2023/09/24 03:15:51;;;;;;;2.80;1.93;;;6.70;99.90;;;;;;467115;250;28882;-70
2023/09/24 03:17:52;;;;;;;2.20;1.70;;;6.70;99.90;;;;;;467150;253;27967;-71
2023/09/24 03:19:54;;;;;;;2.40;2.13;;;6.70;99.90;;;;;;467146;253;28078;-70
2023/09/24 03:21:55;;;;;;;2.23;1.90;;;6.70;99.90;;;;;;467176;254;28054;-70
2023/09/24 03:23:59;;;;;;;2.58;2.00;;;6.70;99.90;;;;;;467160;254;27831;-71
2023/09/24 03:25:57;;;;;;;2.10;2.00;;;6.70;99.90;;;;;;467153;253;27438;-70
2023/09/24 03:28:00;;;;;;;3.57;2.00;;;6.70;99.90;;;;;;467168;249;29337;-71
2023/09/24 03:30:00;;;;;;;1.63;1.53;;;6.70;99.90;;;;;;467111;253;29437;-71
2023/09/24 03:32:01;;;;;;;5.03;2.10;;;6.70;99.90;;;;;;467214;250;28630;-71
2023/09/24 03:34:02;;;;;;;2.43;1.80;;;6.70;99.90;;;;;;467195;254;28436;-71
2023/09/24 03:36:07;;;;;;;3.70;2.10;;;6.70;99.90;;;;;;467195;253;29388;-71
2023/09/24 03:38:05;;;;;;;2.27;1.93;;;6.60;99.90;;;;;;466992;254;28549;-70
2023/09/24 03:40:08;;;;;;;3.73;1.90;;;6.70;99.90;;;;;;467192;253;28051;-72
2023/09/24 03:42:08;;;;;;;2.05;1.87;;;6.70;99.90;;;;;;467129;253;27780;-70
2023/09/24 03:44:09;;;;;;;2.63;2.00;;;6.70;99.90;;;;;;467170;253;27481;-72
2023/09/24 03:46:11;;;;;;;5.93;2.23;;;6.60;99.90;;;;;;467171;253;28194;-70
2023/09/24 03:48:12;;;;;;;3.72;2.20;;;6.60;99.90;;;;;;467175;249;28963;-71
2023/09/24 03:50:16;;;;;;;3.90;1.90;;;6.60;99.90;;;;;;467099;254;27569;-71
2023/09/24 03:52:17;;;;;;;2.00;1.87;;;6.60;99.90;;;;;;467125;254;28448;-71
2023/09/24 03:54:18;;;;;;;2.17;1.97;;;6.50;99.90;;;;;;467167;253;28148;-70
2023/09/24 03:56:20;;;;;;;2.20;2.00;;;6.40;99.90;;;;;;467165;253;27719;-71
2023/09/24 03:58:20;;;;;;;2.28;2.08;;;6.50;99.90;;;;;;467085;254;28958;-73
2023/09/24 04:00:22;;;;;;;2.28;1.90;;;6.60;99.90;;;;;;467127;250;27441;-70
2023/09/24 04:02:23;;;;;;;2.00;1.75;;;6.60;99.90;;;;;;467191;253;27476;-71
2023/09/24 04:04:24;;;;;;;2.53;2.17;;;6.60;99.90;;;;;;467187;253;27433;-70
2023/09/24 04:06:25;;;;;;;2.50;2.20;;;6.70;99.90;;;;;;467189;253;29259;-70
2023/09/24 04:08:27;;;;;;;3.10;2.20;;;6.70;99.90;;;;;;467237;254;28163;-72
2023/09/24 04:10:28;;;;;;;3.40;1.77;;;6.70;99.90;;;;;;467209;253;27426;-70
2023/09/24 04:12:29;;;;;;;2.42;2.22;;;6.70;99.90;;;;;;467181;253;28519;-71
2023/09/24 04:14:31;;;;;;;1.70;1.60;;;6.70;99.90;;;;;;467136;254;27473;-72
2023/09/24 04:16:32;;;;;;;2.30;1.85;;;6.70;99.90;;;;;;467183;253;28615;-70
2023/09/24 04:18:35;;;;;;;3.72;2.10;;;6.70;99.90;;;;;;467195;253;27516;-71
2023/09/24 04:20:34;;;;;;;3.40;1.80;;;6.70;99.90;;;;;;467075;253;27564;-71
2023/09/24 04:22:36;;;;;;;1.85;1.75;;;6.70;99.90;;;;;;467143;254;28864;-70
2023/09/24 04:24:37;;;;;;;2.60;2.00;;;6.80;99.90;;;;;;467172;253;28106;-71
2023/09/24 04:26:38;;;;;;;1.73;1.63;;;6.80;99.90;;;;;;467120;254;28794;-70
2023/09/24 04:28:39;;;;;;;2.67;1.80;;;6.80;99.90;;;;;;467128;253;29321;-71
2023/09/24 04:30:41;;;;;;;1.97;1.83;;;6.70;99.90;;;;;;467063;250;28700;-70
2023/09/24 04:32:42;;;;;;;2.95;1.80;;;6.70;99.90;;;;;;467112;249;27574;-70
2023/09/24 04:34:44;;;;;;;2.30;2.10;;;6.60;99.90;;;;;;467156;254;27668;-70
2023/09/24 04:36:44;;;;;;;3.92;1.95;;;6.60;99.90;;;;;;467087;254;28831;-71
2023/09/24 04:38:47;;;;;;;1.75;1.65;;;6.60;99.90;;;;;;467194;253;27570;-71
2023/09/24 04:40:47;;;;;;;3.43;2.00;;;6.60;99.90;;;;;;467112;253;27850;-71
2023/09/24 04:42:48;;;;;;;2.50;1.90;;;6.60;99.90;;;;;;467203;253;28852;-70
2023/09/24 04:44:49;;;;;;;3.17;1.77;;;6.60;99.90;;;;;;467181;253;29093;-70
2023/09/24 04:46:51;;;;;;;2.97;2.20;;;6.60;99.90;;;;;;467170;253;27978;-70
2023/09/24 04:48:52;;;;;;;2.20;2.00;;;6.60;99.90;;;;;;467125;253;27684;-70
2023/09/24 04:50:53;;;;;;;1.80;1.70;;;6.60;99.90;;;;;;467171;253;27552;-72
2023/09/24 04:52:55;;;;;;;4.37;1.90;;;6.50;99.90;;;;;;467170;253;27435;-71
2023/09/24 04:54:56;;;;;;;1.90;1.80;;;6.50;99.90;;;;;;467124;253;27594;-71
2023/09/24 04:56:57;;;;;;;2.07;1.97;;;6.40;99.90;;;;;;467140;253;27496;-71
2023/09/24 04:58:58;;;;;;;1.87;1.70;;;6.40;99.90;;;;;;467152;253;28865;-70
2023/09/24 05:00:59;;;;;;;2.65;1.90;;;6.40;99.90;;;;;;467148;253;27985;-72
2023/09/24 05:03:01;;;;;;;2.20;2.00;;;6.30;99.90;;;;;;467123;253;27576;-70
2023/09/24 05:05:03;;;;;;;3.75;2.30;;;6.40;99.90;;;;;;467124;253;27504;-71
2023/09/24 05:07:03;;;;;;;3.90;1.70;;;6.40;99.90;;;;;;467132;253;27473;-70
2023/09/24 05:09:04;;;;;;;3.05;2.17;;;6.40;99.90;;;;;;467168;254;27534;-70
2023/09/24 05:11:06;;;;;;;2.67;1.98;;;6.40;99.90;;;;;;467153;253;27551;-71
2023/09/24 05:13:08;;;;;;;2.03;1.80;;;6.40;99.90;;;;;;467126;254;27929;-71
2023/09/24 05:15:08;;;;;;;1.90;1.70;;;6.30;99.90;;;;;;467094;254;28040;-70
2023/09/24 05:17:09;;;;;;;3.55;2.08;;;6.20;99.90;;;;;;467163;253;27555;-72
2023/09/24 05:19:11;;;;;;;2.65;1.83;;;6.20;99.90;;;;;;467156;253;27533;-70
2023/09/24 05:21:12;;;;;;;2.03;1.73;;;6.20;99.90;;;;;;467138;254;27569;-71
2023/09/24 05:23:13;;;;;;;1.98;1.85;;;6.10;99.90;;;;;;467095;253;27489;-70
2023/09/24 05:25:14;;;;;;;2.22;2.03;;;6.10;99.90;;;;;;467171;253;27485;-70
2023/09/24 05:27:17;;;;;;;4.40;1.98;;;6.10;99.90;;;;;;467115;253;28061;-70
2023/09/24 05:29:17;;;;;;;1.90;1.80;;;6.20;99.90;;;;;;467116;253;27902;-72
2023/09/24 05:31:18;;;;;;;2.27;1.90;;;6.30;99.90;;;;;;467159;253;27509;-72
2023/09/24 05:33:20;;;;;;;2.00;1.90;;;6.30;99.90;;;;;;467116;253;28968;-71
2023/09/24 05:35:21;;;;;;;2.83;2.35;;;6.30;99.90;;;;;;467147;253;27524;-71
2023/09/24 05:37:22;;;;;;;2.30;2.00;;;6.30;99.90;;;;;;467115;253;27553;-72
2023/09/24 05:39:23;;;;;;;2.37;2.00;;;6.30;99.90;;;;;;467129;253;27561;-71
2023/09/24 05:41:25;;;;;;;2.00;1.90;;;6.20;99.90;;;;;;467134;253;29350;-71
2023/09/24 05:43:26;;;;;;;1.90;1.80;;;6.20;99.90;;;;;;467146;253;29522;-71
2023/09/24 05:45:27;;;;;;;1.92;1.70;;;6.30;99.90;;;;;;467096;253;28072;-70
2023/09/24 05:47:30;;;;;;;3.65;2.17;;;6.20;99.90;;;;;;467094;253;27549;-71
2023/09/24 05:49:30;;;;;;;1.80;1.70;;;6.20;99.90;;;;;;467074;254;27449;-70
2023/09/24 05:51:31;;;;;;;3.03;2.05;;;6.30;99.90;;;;;;467129;253;27485;-70
2023/09/24 05:53:32;;;;;;;2.90;2.28;;;6.30;99.90;;;;;;467193;253;27508;-71
2023/09/24 05:55:33;;;;;;;6.55;2.25;;;6.30;99.90;;;;;;467146;253;27956;-71
2023/09/24 05:57:35;;;;;;;5.07;2.40;;;6.30;99.90;;;;;;467142;253;28089;-71
2023/09/24 05:59:36;;;;;;;4.85;2.25;;;6.40;99.90;;;;;;467162;249;27517;-71
2023/09/24 06:01:39;;;;;;;2.17;1.90;;;6.40;99.90;;;;;;467163;253;27622;-71
2023/09/24 06:03:38;;;;;;;3.30;2.03;;;6.50;99.90;;;;;;467091;254;27489;-71
2023/09/24 06:05:40;;;;;;;1.90;1.80;;;6.50;99.90;;;;;;467153;253;28705;-70
2023/09/24 06:07:42;;;;;;;1.87;1.77;;;6.60;99.90;;;;;;467161;253;28976;-71
2023/09/24 06:09:42;;;;;;;2.60;2.10;;;6.50;99.90;;;;;;467103;252;27481;-71
2023/09/24 06:11:43;;;;;;;1.97;1.77;;;6.50;99.90;;;;;;467111;254;28032;-69
2023/09/24 06:13:45;;;;;;;4.10;2.37;;;6.60;99.90;;;;;;467124;253;29331;-70
2023/09/24 06:15:46;;;;;;;2.33;2.13;;;6.60;99.90;;;;;;467148;253;28498;-69
2023/09/24 06:17:47;;;;;;;2.67;2.23;;;6.60;99.90;;;;;;467145;253;28914;-70
2023/09/24 06:19:48;;;;;;;2.60;2.13;;;6.70;99.90;;;;;;467147;249;28923;-72
2023/09/24 06:21:50;;;;;;;2.85;2.55;;;6.70;99.90;;;;;;467156;253;28938;-71
2023/09/24 06:23:51;;;;;;;4.67;2.20;;;6.80;99.90;;;;;;467172;253;27603;-71
2023/09/24 06:25:52;;;;;;;2.00;1.73;;;6.70;99.90;;;;;;467152;253;28832;-70
2023/09/24 06:27:54;;;;;;;5.17;2.00;;;6.70;99.90;;;;;;467152;254;28854;-71
2023/09/24 06:29:55;;;;;;;3.93;2.10;;;6.70;99.90;;;;;;467170;253;28145;-70
2023/09/24 06:31:56;;;;;;;2.20;2.00;;;6.80;99.90;;;;;;467159;253;28105;-70
2023/09/24 06:33:57;;;;;;;2.28;2.08;;;6.80;99.90;;;;;;467121;254;28491;-71
2023/09/24 06:35:58;;;;;;;2.45;1.95;;;6.90;99.90;;;;;;467157;253;28166;-72
2023/09/24 06:38:00;;;;;;;2.00;1.85;;;7.00;99.90;;;;;;467146;249;27441;-70
2023/09/24 06:40:01;;;;;;;3.08;2.12;;;7.10;99.90;;;;;;467085;253;27477;-72
2023/09/24 06:42:02;;;;;;;2.60;2.20;;;7.10;99.90;;;;;;467163;253;27505;-70
2023/09/24 06:44:03;;;;;;;1.80;1.70;;;7.20;99.90;;;;;;467150;253;28856;-70
2023/09/24 06:46:05;;;;;;;3.47;2.13;;;7.20;99.90;;;;;;467160;253;28262;-71
2023/09/24 06:48:06;;;;;;;3.83;2.53;;;7.30;99.90;;;;;;467155;253;28824;-70
2023/09/24 06:50:07;;;;;;;4.83;2.23;;;7.30;99.90;;;;;;467152;253;27931;-71
2023/09/24 06:52:08;;;;;;;5.63;2.40;;;7.40;99.90;;;;;;467137;253;27689;-70
2023/09/24 06:54:10;;;;;;;2.00;1.90;;;7.40;99.90;;;;;;467154;253;28521;-70
2023/09/24 06:56:11;;;;;;;3.57;2.30;;;7.50;99.90;;;;;;467164;253;28446;-72
2023/09/24 06:58:12;;;;;;;2.43;2.23;;;7.60;99.90;;;;;;467178;250;28732;-70
2023/09/24 07:00:14;;;;;;;2.80;2.40;;;7.60;99.90;;;;;;467168;253;28556;-70
2023/09/24 07:02:15;;;;;;;2.03;1.87;;;7.70;99.90;;;;;;467175;254;29317;-70
2023/09/24 07:04:16;;;;;;;2.77;2.00;;;7.70;99.90;;;;;;467222;253;27900;-71
2023/09/24 07:06:17;;;;;;;2.70;1.87;;;7.80;99.90;;;;;;467206;253;27809;-71
2023/09/24 07:08:18;;;;;;;2.30;2.10;;;7.80;99.90;;;;;;467215;253;27883;-70
2023/09/24 07:10:20;;;;;;;3.03;1.83;;;7.80;99.90;;;;;;467191;253;27786;-72
2023/09/24 07:12:22;;;;;;;4.87;2.53;;;7.90;99.90;;;;;;467174;253;27832;-70
2023/09/24 07:14:22;;;;;;;2.77;2.23;;;8.00;99.90;;;;;;467205;254;27650;-71
2023/09/24 07:16:23;;;;;;;2.57;2.27;;;8.00;99.90;;;;;;467178;250;28087;-72
2023/09/24 07:18:25;;;;;;;2.00;1.90;;;8.10;99.90;;;;;;467147;253;28036;-70
2023/09/24 07:20:26;;;;;;;3.43;2.63;;;8.20;99.90;;;;;;467143;253;27875;-71
2023/09/24 07:22:27;;;;;;;2.83;2.53;;;8.20;99.90;;;;;;467207;253;28451;-72
2023/09/24 07:24:29;;;;;;;3.90;2.80;;;8.40;99.90;;;;;;467168;253;28501;-71
2023/09/24 07:26:30;;;;;;;4.53;2.63;;;8.40;99.90;;;;;;467198;253;28607;-71
2023/09/24 07:28:31;;;;;;;2.53;2.33;;;8.50;99.90;;;;;;467175;254;28503;-70
2023/09/24 07:30:33;;;;;;;2.53;2.20;;;8.60;99.90;;;;;;467181;253;27793;-70
2023/09/24 07:32:33;;;;;;;2.90;2.60;;;8.70;99.90;;;;;;467211;253;28040;-71
2023/09/24 07:34:35;;;;;;;2.50;2.30;;;8.80;99.90;;;;;;467178;250;27996;-70
2023/09/24 07:36:36;;;;;;;3.90;2.50;;;8.90;99.90;;;;;;467165;253;28062;-71
2023/09/24 07:38:37;;;;;;;3.00;2.60;;;9.00;99.90;;;;;;467122;253;27679;-70
2023/09/24 07:40:39;;;;;;;3.20;2.33;;;9.10;99.90;;;;;;467174;253;27952;-70
2023/09/24 07:42:40;;;;;;;2.87;2.60;;;9.20;99.90;;;;;;467148;254;28001;-71
2023/09/24 07:44:41;;;;;;;3.90;2.40;;;9.30;99.90;;;;;;467162;253;27955;-70
2023/09/24 07:46:42;;;;;;;3.73;2.43;;;9.30;99.90;;;;;;467158;253;27673;-70
2023/09/24 07:48:43;;;;;;;3.57;2.83;;;9.40;99.90;;;;;;467182;250;28099;-71
2023/09/24 07:50:45;;;;;;;4.20;2.40;;;9.50;99.90;;;;;;467202;249;27827;-71
2023/09/24 07:52:46;;;;;;;4.83;2.77;;;9.60;99.90;;;;;;467160;253;28035;-71
2023/09/24 07:54:48;;;;;;;3.00;2.00;;;9.70;99.90;;;;;;467143;253;27559;-70
2023/09/24 07:56:48;;;;;;;4.87;2.67;;;9.70;99.90;;;;;;467123;249;27870;-70
2023/09/24 07:58:50;;;;;;;4.00;2.47;;;9.80;99.90;;;;;;467188;253;28445;-71
2023/09/24 08:00:54;;;;;;;3.33;2.30;;;9.80;99.90;;;;;;467152;254;27817;-70
2023/09/24 08:02:52;;;;;;;2.50;2.30;;;9.90;99.90;;;;;;466837;254;28019;-71
2023/09/24 08:04:54;;;;;;;3.53;2.60;;;10.00;99.90;;;;;;467184;253;27715;-70
2023/09/24 08:06:55;;;;;;;3.43;2.40;;;10.00;99.90;;;;;;467176;253;28079;-71
2023/09/24 08:08:56;;;;;;;3.70;2.33;;;10.10;99.90;;;;;;467168;253;27988;-71
2023/09/24 08:10:58;;;;;;;4.07;2.37;;;10.20;99.90;;;;;;467174;253;27950;-70
2023/09/24 08:12:59;;;;;;;4.60;2.67;;;10.20;99.90;;;;;;467140;253;27963;-71
2023/09/24 08:15:00;;;;;;;4.47;2.37;;;10.30;99.90;;;;;;467180;254;27948;-71
2023/09/24 08:17:02;;;;;;;2.40;2.20;;;10.40;99.90;;;;;;467147;250;27939;-70
2023/09/24 08:19:02;;;;;;;7.00;2.47;;;10.50;99.90;;;;;;467130;254;28426;-71
2023/09/24 08:21:04;;;;;;;2.87;2.40;;;10.50;99.90;;;;;;467144;253;28331;-71
2023/09/24 08:23:05;;;;;;;4.30;2.70;;;10.60;99.90;;;;;;467143;253;28422;-70
2023/09/24 08:25:06;;;;;;;2.77;2.27;;;10.60;99.90;;;;;;467159;253;28341;-73
2023/09/24 08:27:07;;;;;;;5.80;2.70;;;10.70;99.90;;;;;;467152;253;27974;-71
2023/09/24 08:29:09;;;;;;;4.23;2.90;;;10.80;99.90;;;;;;467142;253;28033;-70
2023/09/24 08:31:10;;;;;;;5.43;2.40;;;11.00;99.90;;;;;;467113;253;28082;-71
2023/09/24 08:33:11;;;;;;;3.33;2.37;;;11.10;99.90;;;;;;467164;253;27971;-70
2023/09/24 08:35:12;;;;;;;5.17;2.00;;;11.10;99.90;;;;;;467111;253;28106;-72
2023/09/24 08:37:14;;;;;;;3.93;1.97;;;11.20;99.90;;;;;;467023;253;28045;-70
2023/09/24 08:39:15;;;;;;;4.10;2.80;;;11.20;99.90;;;;;;467073;249;28062;-71
2023/09/24 08:41:16;;;;;;;2.67;2.43;;;11.30;99.90;;;;;;467123;253;28188;-71
2023/09/24 08:43:17;;;;;;;2.47;2.27;;;11.40;99.90;;;;;;467177;253;28673;-70
2023/09/24 08:45:19;;;;;;;3.17;2.20;;;11.30;99.90;;;;;;467151;253;28706;-71
2023/09/24 08:47:20;;;;;;;3.20;2.27;;;11.40;99.90;;;;;;467135;254;28551;-72
2023/09/24 08:49:21;;;;;;;3.37;2.37;;;11.50;99.90;;;;;;467118;250;28781;-70
2023/09/24 08:51:22;;;;;;;2.07;1.87;;;11.70;99.90;;;;;;467171;253;28215;-75
2023/09/24 08:53:27;;;;;;;4.07;1.93;;;11.80;99.90;;;;;;467165;253;28425;-71
2023/09/24 08:55:26;;;;;;;2.33;2.00;;;11.80;99.90;;;;;;466956;254;28254;-71
2023/09/24 08:57:26;;;;;;;2.30;2.10;;;11.90;99.90;;;;;;467127;249;28247;-71
2023/09/24 08:59:28;;;;;;;2.17;1.97;;;12.00;99.90;;;;;;467158;253;28350;-71
2023/09/24 09:01:29;;;;;;;1.50;1.40;;;12.00;99.90;;;;;;467149;249;28457;-71
2023/09/24 09:03:30;;;;;;;2.10;1.90;;;12.10;99.90;;;;;;467164;254;28340;-71
2023/09/24 09:05:31;;;;;;;2.23;2.03;;;12.30;99.90;;;;;;467137;253;28176;-71
2023/09/24 09:07:32;;;;;;;1.63;1.53;;;12.30;99.90;;;;;;467109;253;28454;-71
2023/09/24 09:09:34;;;;;;;3.43;2.27;;;12.40;99.90;;;;;;467150;253;28757;-71
2023/09/24 09:11:35;;;;;;;4.60;2.10;;;12.50;99.90;;;;;;467185;253;28892;-71
2023/09/24 09:13:36;;;;;;;2.90;2.03;;;12.80;99.90;;;;;;467141;253;28865;-71
2023/09/24 09:15:37;;;;;;;1.93;1.60;;;12.90;99.90;;;;;;467156;253;28524;-71
2023/09/24 09:17:39;;;;;;;3.43;2.03;;;12.90;99.90;;;;;;467140;253;28066;-71
2023/09/24 09:19:40;;;;;;;3.00;1.73;;;12.90;99.90;;;;;;467151;253;28518;-71
2023/09/24 09:21:41;;;;;;;3.00;1.50;;;13.00;99.90;;;;;;467122;254;28482;-72
2023/09/24 09:23:44;;;;;;;2.93;1.60;;;13.00;99.90;;;;;;467146;254;28069;-71
2023/09/24 09:25:44;;;;;;;1.70;1.60;;;13.00;99.90;;;;;;467061;249;28243;-71
2023/09/24 09:27:46;;;;;;;2.00;1.73;;;13.00;99.90;;;;;;467168;253;28779;-73
2023/09/24 09:29:46;;;;;;;4.30;1.67;;;13.20;99.90;;;;;;467133;254;28169;-71
2023/09/24 09:31:49;;;;;;;4.57;3.63;;;13.60;99.90;;;;;;467106;253;29321;-72
2023/09/24 09:33:49;;;;;;;2.93;1.80;;;13.90;99.90;;;;;;467083;254;28734;-73
2023/09/24 09:35:51;;;;;;;2.07;1.87;;;14.00;99.90;;;;;;467181;253;28715;-71
2023/09/24 09:37:51;;;;;;;2.70;1.80;;;13.90;99.90;;;;;;467129;250;28790;-72
2023/09/24 09:39:53;;;;;;;4.13;1.80;;;13.90;99.90;;;;;;467193;253;28303;-71
2023/09/24 09:41:54;;;;;;;2.00;1.80;;;13.90;99.90;;;;;;467162;253;28825;-71
2023/09/24 09:43:56;;;;;;;2.00;1.60;;;13.80;99.90;;;;;;467191;254;28770;-72
2023/09/24 09:45:57;;;;;;;2.20;1.60;;;13.80;99.90;;;;;;467174;253;28385;-72
2023/09/24 09:47:59;;;;;;;1.23;1.23;;;13.90;99.90;;;;;;467180;253;28207;-71
2023/09/24 09:49:59;;;;;;;2.10;1.73;;;14.00;99.90;;;;;;467189;253;28450;-72
2023/09/24 09:52:03;;;;;;;1.77;1.40;;;14.10;99.90;;;;;;467147;253;28352;-71
2023/09/24 09:54:06;;;;;;;1.60;1.50;;;14.10;99.90;;;;;;467179;249;28521;-72
2023/09/24 09:56:06;;;;;;;1.87;1.40;;;14.10;99.90;;;;;;467105;254;28325;-71
2023/09/24 09:58:07;;;;;;;1.93;1.20;;;14.00;99.90;;;;;;467139;253;28309;-71
2023/09/24 10:00:10;;;;;;;2.10;1.43;;;14.10;99.90;;;;;;467145;254;28913;-71
2023/09/24 10:02:10;;;;;;;2.27;1.57;;;14.20;99.90;;;;;;467112;253;28460;-72
2023/09/24 10:04:11;;;;;;;3.90;1.60;;;14.30;99.90;;;;;;467141;253;28535;-71
2023/09/24 10:06:13;;;;;;;1.50;1.40;;;14.30;99.90;;;;;;467121;253;29060;-71
2023/09/24 10:08:13;;;;;;;1.13;1.03;;;14.50;99.90;;;;;;467148;254;28973;-74
2023/09/24 10:10:15;;;;;;;2.10;1.50;;;14.50;99.90;;;;;;467134;253;29357;-71
2023/09/24 10:12:17;;;;;;;6.03;1.40;;;14.50;99.90;;;;;;467162;254;28622;-71
2023/09/24 10:14:17;;;;;;;1.93;1.40;;;14.50;99.90;;;;;;467144;253;28534;-71
2023/09/24 10:16:18;;;;;;;2.20;1.80;;;14.70;99.90;;;;;;467129;254;28309;-71
2023/09/24 10:18:20;;;;;;;1.43;1.33;;;14.90;99.90;;;;;;467162;253;28628;-74
2023/09/24 10:20:21;;;;;;;1.97;1.60;;;15.10;99.90;;;;;;467123;253;28852;-73
2023/09/24 10:22:22;;;;;;;1.63;1.53;;;15.10;99.90;;;;;;467124;254;29097;-71
2023/09/24 10:24:28;;;;;;;2.97;1.90;;;14.80;99.90;;;;;;467131;254;29735;-72
2023/09/24 10:26:25;;;;;;;1.77;1.67;;;14.70;99.90;;;;;;466855;254;28993;-71
2023/09/24 10:28:26;;;;;;;2.70;1.60;;;14.60;99.90;;;;;;467131;254;28901;-72
2023/09/24 10:30:27;;;;;;;1.50;1.40;;;14.50;99.90;;;;;;467157;253;28393;-71
2023/09/24 10:32:29;;;;;;;1.77;1.50;;;14.50;99.90;;;;;;467125;254;28862;-72
2023/09/24 10:34:30;;;;;;;5.07;2.10;;;14.50;99.90;;;;;;467151;253;28857;-71
2023/09/24 10:36:33;;;;;;;1.67;1.57;;;14.80;99.90;;;;;;467157;253;28692;-71
2023/09/24 10:38:32;;;;;;;1.93;1.50;;;15.10;99.90;;;;;;467036;254;28669;-71